Time;durP1;ratioP1;P1;durP2;ratioP2;P2;SDS_P1;SDS_P2;PMS_P1;PMS_P2;Temp;Humidity;BMP_temperature;BMP_pressure;BME280_temperature;BME280_humidity;BME280_pressure;Samples;Min_cycle;Max_cycle;Signal;HPM_P1;HPM_P2
2023/05/28 00:00:45;;;;;;;;;;;18.90;99.90;;;;;;5091848;28;20036;-71
2023/05/28 00:03:12;;;;;;;10.93;6.50;;;18.90;99.90;;;;;;5091963;28;19923;-71
2023/05/28 00:05:38;;;;;;;;;;;19.00;99.90;;;;;;5092584;28;20032;-70
2023/05/28 00:08:04;;;;;;;13.57;6.50;;;19.10;99.90;;;;;;5091774;28;19904;-71
2023/05/28 00:10:30;;;;;;;12.98;6.18;;;19.10;99.90;;;;;;5091591;28;20125;-71
2023/05/28 00:12:57;;;;;;;12.70;6.35;;;19.00;99.90;;;;;;5091306;28;20019;-69
2023/05/28 00:15:23;;;;;;;9.70;6.70;;;19.20;99.90;;;;;;5091397;28;20198;-70
2023/05/28 00:17:52;;;;;;;14.35;6.50;;;19.20;99.90;;;;;;5091432;28;20027;-72
2023/05/28 00:20:19;;;;;;;15.05;6.82;;;19.20;99.90;;;;;;5091782;28;20440;-71
2023/05/28 00:22:45;;;;;;;10.27;6.13;;;19.20;99.90;;;;;;5107036;28;20034;-72
2023/05/28 00:25:13;;;;;;;12.80;7.20;;;19.10;99.90;;;;;;5091512;28;20463;-72
2023/05/28 00:27:39;;;;;;;12.63;6.70;;;19.00;99.90;;;;;;5091126;28;20418;-70
2023/05/28 00:30:06;;;;;;;11.60;6.35;;;19.00;99.90;;;;;;5090913;28;20093;-69
2023/05/28 00:32:32;;;;;;;9.32;6.55;;;19.00;99.90;;;;;;5091196;28;20130;-71
2023/05/28 00:34:58;;;;;;;12.93;6.35;;;19.00;99.90;;;;;;5091022;28;20097;-72
2023/05/28 00:37:24;;;;;;;11.75;6.30;;;19.00;99.90;;;;;;5091043;28;20050;-71
2023/05/28 00:39:50;;;;;;;11.68;5.85;;;19.00;99.90;;;;;;5072669;28;20085;-72
2023/05/28 00:42:16;;;;;;;11.48;6.00;;;19.00;99.90;;;;;;5090745;28;20070;-72
2023/05/28 00:44:43;;;;;;;10.63;5.90;;;19.00;99.90;;;;;;5072518;28;20032;-71
2023/05/28 00:47:10;;;;;;;13.02;6.10;;;19.00;99.90;;;;;;5091071;28;20063;-72
2023/05/28 00:49:37;;;;;;;9.25;5.90;;;19.00;99.90;;;;;;5090582;28;20028;-71
2023/05/28 00:52:04;;;;;;;10.27;6.20;;;19.00;99.90;;;;;;5090663;28;20040;-72
2023/05/28 00:54:31;;;;;;;10.88;5.78;;;19.00;99.90;;;;;;5072354;28;20055;-70
2023/05/28 00:56:58;;;;;;;10.43;6.03;;;18.90;99.90;;;;;;5089947;28;20081;-70
2023/05/28 00:59:28;;;;;;;12.55;5.97;;;18.90;99.90;;;;;;5090698;28;20027;-71
2023/05/28 01:01:54;;;;;;;11.27;5.95;;;18.80;99.90;;;;;;5090738;28;20068;-71
2023/05/28 01:04:22;;;;;;;;;;;18.90;99.90;;;;;;5091173;28;20077;-71
2023/05/28 01:06:48;;;;;;;12.05;6.10;;;18.90;99.90;;;;;;5090754;28;19908;-71
2023/05/28 01:09:14;;;;;;;;;;;18.90;99.90;;;;;;5090610;28;20127;-72
2023/05/28 01:11:43;;;;;;;8.10;5.55;;;19.00;99.90;;;;;;5090136;28;20002;-72
2023/05/28 01:14:11;;;;;;;13.40;5.82;;;19.00;99.90;;;;;;5090769;28;20023;-71
2023/05/28 01:16:37;;;;;;;10.25;6.10;;;19.00;99.90;;;;;;5090492;28;20046;-71
2023/05/28 01:19:08;;;;;;;10.32;5.60;;;19.00;99.90;;;;;;5090460;28;20036;-72
2023/05/28 01:21:35;;;;;;;10.45;5.80;;;19.00;99.90;;;;;;5090457;28;20468;-72
2023/05/28 01:24:02;;;;;;;9.98;5.53;;;19.00;99.90;;;;;;5090681;28;20333;-70
2023/05/28 01:26:29;;;;;;;9.85;5.65;;;19.00;99.90;;;;;;5090160;28;20028;-71
2023/05/28 01:28:56;;;;;;;11.07;5.70;;;19.00;99.90;;;;;;5090202;28;20031;-72
2023/05/28 01:31:22;;;;;;;9.13;5.53;;;19.00;99.90;;;;;;5090545;28;20026;-72
2023/05/28 01:33:48;;;;;;;10.10;5.50;;;19.10;99.90;;;;;;5090287;28;20028;-71
2023/05/28 01:36:29;;;;;;;11.98;5.53;;;19.00;99.90;;;;;;5090236;28;20024;-71
2023/05/28 01:38:59;;;;;;;11.45;5.70;;;19.10;99.90;;;;;;5090246;28;20056;-70
2023/05/28 01:41:26;;;;;;;11.43;5.93;;;19.10;99.90;;;;;;5090111;28;20063;-71
2023/05/28 01:43:53;;;;;;;13.27;5.57;;;19.10;99.90;;;;;;5090007;28;20479;-71
2023/05/28 01:46:20;;;;;;;;;;;19.00;99.90;;;;;;5090558;28;20152;-70
2023/05/28 01:48:46;;;;;;;13.45;5.18;;;19.00;99.90;;;;;;5072092;28;20375;-71
2023/05/28 01:51:16;;;;;;;10.70;5.28;;;19.00;99.90;;;;;;5090117;28;20077;-71
2023/05/28 01:53:42;;;;;;;11.25;5.38;;;18.90;99.90;;;;;;5071866;28;20437;-70
2023/05/28 01:56:09;;;;;;;9.45;5.97;;;18.90;99.90;;;;;;5090358;28;20458;-71
2023/05/28 01:58:35;;;;;;;10.88;5.68;;;18.90;99.90;;;;;;5090061;28;20023;-73
2023/05/28 02:01:30;;;;;;;13.40;5.97;;;18.70;99.90;;;;;;5089999;28;20040;-72
2023/05/28 02:03:57;;;;;;;10.43;5.28;;;18.70;99.90;;;;;;5090556;28;20126;-71
2023/05/28 02:06:24;;;;;;;9.48;5.63;;;18.60;99.90;;;;;;5090093;28;20056;-71
2023/05/28 02:08:51;;;;;;;12.25;5.60;;;18.60;99.90;;;;;;5092118;28;20105;-71
2023/05/28 02:11:17;;;;;;;10.25;5.65;;;18.60;99.90;;;;;;5094053;28;20032;-71
2023/05/28 02:13:43;;;;;;;10.35;5.80;;;18.70;99.90;;;;;;5093718;28;20035;-70
2023/05/28 02:16:17;;;;;;;13.63;5.75;;;18.80;99.90;;;;;;5093778;28;20023;-70
2023/05/28 02:18:45;;;;;;;12.23;6.00;;;18.80;99.90;;;;;;5093840;28;20024;-71
2023/05/28 02:21:14;;;;;;;11.98;5.97;;;18.80;99.90;;;;;;5094018;28;20089;-72
2023/05/28 02:23:45;;;;;;;11.88;5.78;;;18.80;99.90;;;;;;5093627;28;20093;-71
2023/05/28 02:26:11;;;;;;;12.50;6.05;;;18.80;99.90;;;;;;5093507;28;20170;-70
2023/05/28 02:28:37;;;;;;;11.25;5.85;;;18.80;99.90;;;;;;5093232;28;20024;-71
2023/05/28 02:31:04;;;;;;;13.52;5.97;;;18.80;99.90;;;;;;5093278;28;20032;-71
2023/05/28 02:33:32;;;;;;;10.93;6.25;;;18.80;99.90;;;;;;5093406;28;20024;-71
2023/05/28 02:35:58;;;;;;;11.02;5.85;;;18.80;99.90;;;;;;5093286;28;20027;-71
2023/05/28 02:38:24;;;;;;;12.07;6.13;;;18.80;99.90;;;;;;5093247;28;20024;-71
2023/05/28 02:40:50;;;;;;;13.40;6.30;;;18.60;99.90;;;;;;5093201;28;20024;-70
2023/05/28 02:43:16;;;;;;;12.85;6.20;;;18.60;99.90;;;;;;5093214;28;20395;-71
2023/05/28 02:45:42;;;;;;;11.10;6.13;;;18.60;99.90;;;;;;5093179;28;20059;-71
2023/05/28 02:48:08;;;;;;;11.00;6.30;;;18.60;99.90;;;;;;5074785;28;20028;-70
2023/05/28 02:50:34;;;;;;;11.20;5.90;;;18.60;99.90;;;;;;5093233;28;20043;-70
2023/05/28 02:53:03;;;;;;;11.18;6.15;;;18.60;99.90;;;;;;5093451;28;20024;-72
2023/05/28 02:55:29;;;;;;;14.60;6.20;;;18.60;99.90;;;;;;5093353;28;20480;-70
2023/05/28 02:57:55;;;;;;;10.27;5.68;;;18.60;99.90;;;;;;5092876;28;20062;-71
2023/05/28 03:00:21;;;;;;;12.48;5.57;;;18.70;99.90;;;;;;5108437;28;20023;-70
2023/05/28 03:02:47;;;;;;;9.65;5.20;;;18.60;99.90;;;;;;5092742;28;20024;-71
2023/05/28 03:05:14;;;;;;;12.13;5.78;;;18.60;99.90;;;;;;5093057;28;20483;-71
2023/05/28 03:07:40;;;;;;;;;;;18.60;99.90;;;;;;5093140;28;20039;-72
2023/05/28 03:10:07;;;;;;;15.38;5.32;;;18.70;99.90;;;;;;5092352;28;19915;-70
2023/05/28 03:12:33;;;;;;;11.05;5.20;;;18.80;99.90;;;;;;5092544;28;20417;-70
2023/05/28 03:14:59;;;;;;;11.10;5.65;;;18.80;99.90;;;;;;5092510;28;20476;-71
2023/05/28 03:17:25;;;;;;;10.18;5.70;;;18.80;99.90;;;;;;5092530;28;20024;-71
2023/05/28 03:19:51;;;;;;;9.43;5.55;;;18.80;99.90;;;;;;5092355;28;20028;-71
2023/05/28 03:22:17;;;;;;;12.73;5.07;;;18.80;99.90;;;;;;5092401;28;20020;-70
2023/05/28 03:24:43;;;;;;;10.07;5.50;;;18.90;99.90;;;;;;5092448;28;20110;-71
2023/05/28 03:27:09;;;;;;;8.00;4.68;;;18.90;99.90;;;;;;5092148;28;20020;-71
2023/05/28 03:29:35;;;;;;;10.63;5.15;;;18.90;99.90;;;;;;5092358;28;20028;-71
2023/05/28 03:32:01;;;;;;;10.63;5.20;;;18.90;99.90;;;;;;5092280;28;20058;-70
2023/05/28 03:34:27;;;;;;;12.38;5.57;;;18.90;99.90;;;;;;5092497;28;20295;-70
2023/05/28 03:36:53;;;;;;;10.35;5.45;;;18.90;99.90;;;;;;5092653;28;20379;-70
2023/05/28 03:39:19;;;;;;;11.73;5.32;;;18.90;99.90;;;;;;5092122;28;20028;-72
2023/05/28 03:41:45;;;;;;;11.20;5.68;;;18.80;99.90;;;;;;5073550;28;20057;-70
2023/05/28 03:44:11;;;;;;;8.63;5.20;;;18.80;99.90;;;;;;5092080;28;20027;-72
2023/05/28 03:46:38;;;;;;;9.20;5.32;;;18.70;99.90;;;;;;5091861;28;20092;-70
2023/05/28 03:49:05;;;;;;;8.32;5.25;;;18.70;99.90;;;;;;5091857;28;20476;-70
2023/05/28 03:51:31;;;;;;;8.32;5.43;;;18.60;99.90;;;;;;5091914;28;20028;-71
2023/05/28 03:53:57;;;;;;;12.98;5.97;;;18.60;99.90;;;;;;5092280;28;20118;-71
2023/05/28 03:56:24;;;;;;;12.38;5.93;;;18.50;99.90;;;;;;5091732;28;20104;-71
2023/05/28 03:58:50;;;;;;;11.18;5.70;;;18.50;99.90;;;;;;5091539;28;20464;-72
2023/05/28 04:01:16;;;;;;;11.38;6.10;;;18.50;99.90;;;;;;5091564;28;20468;-70
2023/05/28 04:03:42;;;;;;;16.13;6.18;;;18.40;99.90;;;;;;5091947;28;20024;-71
2023/05/28 04:06:08;;;;;;;13.68;5.43;;;18.50;99.90;;;;;;5092019;28;20028;-70
2023/05/28 04:08:34;;;;;;;11.20;5.95;;;18.50;99.90;;;;;;5091367;28;20055;-72
2023/05/28 04:11:00;;;;;;;14.40;5.82;;;18.50;99.90;;;;;;5089068;28;20040;-71
2023/05/28 04:13:26;;;;;;;13.68;5.93;;;18.50;99.90;;;;;;5089089;28;20447;-70
2023/05/28 04:15:52;;;;;;;12.10;6.63;;;18.40;99.90;;;;;;5091564;28;20033;-71
2023/05/28 04:18:18;;;;;;;15.45;5.82;;;18.30;99.90;;;;;;5091360;28;20024;-71
2023/05/28 04:20:45;;;;;;;10.57;5.75;;;18.40;99.90;;;;;;5090480;28;20020;-72
2023/05/28 04:23:11;;;;;;;11.25;5.70;;;18.50;99.90;;;;;;5090623;28;20089;-71
2023/05/28 04:25:38;;;;;;;9.40;5.53;;;18.60;99.90;;;;;;5090468;28;20107;-71
2023/05/28 04:28:04;;;;;;;10.80;5.38;;;18.60;99.90;;;;;;5091093;28;20028;-71
2023/05/28 04:30:30;;;;;;;9.43;5.38;;;18.70;99.90;;;;;;5087688;28;20047;-71
2023/05/28 04:32:56;;;;;;;13.40;5.45;;;18.80;99.90;;;;;;5089174;28;20123;-71
2023/05/28 04:35:23;;;;;;;12.32;5.50;;;18.90;99.90;;;;;;5091536;28;20055;-68
2023/05/28 04:37:53;;;;;;;8.15;4.95;;;18.90;99.90;;;;;;5091654;28;20042;-72
2023/05/28 04:40:19;;;;;;;8.15;4.90;;;18.90;99.90;;;;;;5090177;28;20031;-69
2023/05/28 04:42:45;;;;;;;13.07;5.20;;;19.00;99.90;;;;;;5090861;28;20160;-73
2023/05/28 04:45:11;;;;;;;11.77;6.13;;;19.10;99.90;;;;;;5071185;28;20153;-71
2023/05/28 04:47:37;;;;;;;12.77;5.82;;;19.10;99.90;;;;;;5068200;28;20081;-72
2023/05/28 04:50:14;;;;;;;11.93;6.78;;;19.10;99.90;;;;;;5085440;28;20040;-70
2023/05/28 04:52:40;;;;;;;10.20;6.00;;;19.10;99.90;;;;;;5084887;28;20024;-72
2023/05/28 04:55:06;;;;;;;12.32;6.55;;;19.20;99.90;;;;;;5100161;28;20547;-73
2023/05/28 04:57:33;;;;;;;10.98;5.10;;;19.30;99.90;;;;;;5089929;28;20080;-73
2023/05/28 05:00:03;;;;;;;12.50;5.60;;;19.40;99.90;;;;;;5090083;28;20120;-73
2023/05/28 05:02:29;;;;;;;13.35;5.20;;;20.20;99.90;;;;;;5091212;28;20024;-75
2023/05/28 05:04:56;;;;;;;9.30;4.85;;;21.40;99.90;;;;;;5072369;28;20020;-75
2023/05/28 05:07:22;;;;;;;12.60;4.80;;;22.50;99.90;;;;;;5090033;28;20476;-74
2023/05/28 05:09:48;;;;;;;11.10;4.90;;;23.40;99.90;;;;;;5089764;28;20059;-73
2023/05/28 05:12:14;;;;;;;13.68;5.38;;;24.20;99.90;;;;;;5090241;28;20140;-73
2023/05/28 05:14:40;;;;;;;10.15;5.05;;;23.90;99.90;;;;;;5090545;28;20028;-74
2023/05/28 05:17:08;;;;;;;9.27;4.97;;;25.40;99.90;;;;;;5072409;28;20047;-71
2023/05/28 05:19:35;;;;;;;11.95;5.30;;;26.00;99.90;;;;;;5090746;28;20020;-74
2023/05/28 05:22:01;;;;;;;13.18;5.40;;;26.00;99.90;;;;;;5090864;28;20434;-73
2023/05/28 05:24:27;;;;;;;9.45;5.18;;;26.50;99.90;;;;;;5090599;28;20480;-75
2023/05/28 05:26:53;;;;;;;10.85;5.10;;;26.80;99.90;;;;;;5090672;28;20182;-74
2023/05/28 05:29:19;;;;;;;13.32;5.60;;;27.50;99.90;;;;;;5072108;28;20023;-73
2023/05/28 05:31:45;;;;;;;8.32;4.97;;;26.70;99.90;;;;;;5090627;28;20059;-74
2023/05/28 05:34:11;;;;;;;12.23;5.28;;;26.70;99.90;;;;;;5090703;28;20020;-73
2023/05/28 05:36:37;;;;;;;11.43;4.88;;;27.80;99.90;;;;;;5072270;28;20024;-73
2023/05/28 05:39:03;;;;;;;7.85;4.38;;;28.30;99.90;;;;;;5090705;28;20518;-75
2023/05/28 05:41:29;;;;;;;12.80;4.70;;;29.30;99.90;;;;;;5090864;28;20483;-74
2023/05/28 05:43:55;;;;;;;8.32;4.40;;;28.50;99.90;;;;;;5094385;28;20028;-75
2023/05/28 05:46:21;;;;;;;10.63;4.35;;;28.70;99.90;;;;;;5094818;28;20050;-74
2023/05/28 05:48:47;;;;;;;7.97;3.97;;;28.70;99.90;;;;;;5094510;28;20115;-70
2023/05/28 05:51:18;;;;;;;8.32;4.00;;;29.70;99.90;;;;;;5093113;28;20565;-70
2023/05/28 05:53:44;;;;;;;10.60;4.20;;;29.10;99.90;;;;;;5091223;28;20091;-71
2023/05/28 05:56:11;;;;;;;10.02;4.15;;;27.60;99.90;;;;;;5095774;28;20052;-71
2023/05/28 05:58:37;;;;;;;;;;;27.70;99.90;;;;;;5095326;28;20027;-71
2023/05/28 06:01:05;;;;;;;6.57;3.47;;;27.90;99.90;;;;;;5095454;28;19904;-73
2023/05/28 06:03:31;;;;;;;7.35;3.67;;;28.90;99.90;;;;;;5093197;28;20027;-74
2023/05/28 06:05:57;;;;;;;7.05;3.33;;;29.00;99.90;;;;;;5093699;28;20028;-74
2023/05/28 06:08:23;;;;;;;;;;;28.70;99.90;;;;;;5094096;28;20044;-76
2023/05/28 06:10:49;;;;;;;5.22;3.30;;;29.80;99.90;;;;;;5089854;28;19915;-73
2023/05/28 06:13:15;;;;;;;5.57;2.90;;;29.40;99.90;;;;;;5093899;28;20130;-74
2023/05/28 06:15:41;;;;;;;;;;;30.20;99.90;;;;;;5094178;28;20024;-75
2023/05/28 06:18:07;;;;;;;7.78;3.10;;;30.50;99.90;;;;;;5092463;28;20003;-74
2023/05/28 06:20:33;;;;;;;5.93;2.90;;;32.00;99.90;;;;;;5093599;28;20024;-74
2023/05/28 06:22:59;;;;;;;;;;;33.10;99.90;;;;;;5075662;28;20019;-71
2023/05/28 06:25:26;;;;;;;4.97;2.55;;;33.00;99.90;;;;;;5080308;28;20007;-71
2023/05/28 06:27:53;;;;;;;7.55;2.58;;;33.90;99.90;;;;;;5094202;28;20107;-72
2023/05/28 06:30:19;;;;;;;9.18;2.70;;;34.30;99.90;;;;;;5094230;28;20123;-72
2023/05/28 06:32:45;;;;;;;5.65;2.85;;;33.30;99.90;;;;;;5094242;28;20024;-72
2023/05/28 06:35:12;;;;;;;6.82;2.35;;;34.30;99.90;;;;;;5094823;28;20468;-74
2023/05/28 06:37:38;;;;;;;5.68;2.50;;;35.30;99.90;;;;;;5095328;28;20374;-73
2023/05/28 06:40:06;;;;;;;6.30;2.90;;;37.40;99.90;;;;;;5094081;28;20103;-74
2023/05/28 06:42:32;;;;;;;7.32;2.60;;;37.20;99.90;;;;;;5094565;28;20173;-72
2023/05/28 06:44:59;;;;;;;5.10;2.15;;;35.20;99.90;;;;;;5094461;28;20028;-73
2023/05/28 06:47:26;;;;;;;6.38;2.45;;;35.20;99.90;;;;;;5094679;28;20079;-72
2023/05/28 06:49:52;;;;;;;4.95;2.40;;;36.20;99.00;;;;;;5094756;28;20028;-71
2023/05/28 06:52:19;;;;;;;6.40;2.50;;;35.20;99.90;;;;;;5094872;28;20032;-75
2023/05/28 06:54:46;;;;;;;9.88;2.55;;;35.40;99.90;;;;;;5093412;28;20020;-73
2023/05/28 06:57:12;;;;;;;6.05;2.30;;;35.10;99.10;;;;;;5073415;28;20032;-75
2023/05/28 06:59:38;;;;;;;5.03;2.00;;;33.60;99.90;;;;;;5089915;28;20024;-76
2023/05/28 07:02:04;;;;;;;6.78;2.80;;;34.70;99.90;;;;;;5073810;28;20029;-74
2023/05/28 07:04:30;;;;;;;4.53;2.15;;;36.50;99.40;;;;;;5102508;28;20036;-74
2023/05/28 07:06:56;;;;;;;4.53;2.40;;;35.00;98.20;;;;;;5091883;28;20032;-75
2023/05/28 07:09:23;;;;;;;4.88;2.22;;;33.80;99.90;;;;;;5097361;28;20082;-73
2023/05/28 07:11:49;;;;;;;4.65;2.60;;;34.00;99.90;;;;;;5094757;28;20043;-73
2023/05/28 07:14:15;;;;;;;4.85;2.10;;;34.20;99.90;;;;;;5092478;28;20020;-74
2023/05/28 07:16:42;;;;;;;4.20;2.20;;;32.90;99.90;;;;;;5091817;28;20372;-73
2023/05/28 07:19:08;;;;;;;4.80;2.30;;;31.10;99.90;;;;;;5094391;28;20012;-75
2023/05/28 07:21:34;;;;;;;;;;;30.30;99.90;;;;;;5094183;28;20024;-71
2023/05/28 07:24:00;;;;;;;5.47;2.50;;;29.70;99.90;;;;;;5093916;28;19904;-73
2023/05/28 07:26:26;;;;;;;7.43;2.55;;;30.30;99.90;;;;;;5092188;28;20032;-78
2023/05/28 07:28:52;;;;;;;;;;;30.70;99.90;;;;;;5089388;28;20162;-70
2023/05/28 07:31:18;;;;;;;5.70;2.55;;;30.00;99.90;;;;;;5085431;28;20400;-68
2023/05/28 07:33:44;;;;;;;3.70;2.60;;;28.80;99.90;;;;;;5089044;28;20024;-68
2023/05/28 07:36:11;;;;;;;6.20;2.92;;;27.70;99.90;;;;;;5093122;28;20105;-69
2023/05/28 07:38:37;;;;;;;7.38;3.05;;;27.80;99.90;;;;;;5090663;28;20039;-67
2023/05/28 07:41:03;;;;;;;6.30;2.83;;;28.70;99.90;;;;;;5091590;28;20016;-68
2023/05/28 07:43:29;;;;;;;7.63;2.63;;;28.40;99.90;;;;;;5092072;28;20147;-69
2023/05/28 07:45:55;;;;;;;6.05;2.90;;;28.90;99.90;;;;;;5092468;28;20047;-69
2023/05/28 07:48:21;;;;;;;7.65;3.53;;;28.20;99.90;;;;;;5092112;28;20456;-69
2023/05/28 07:50:49;;;;;;;13.07;3.83;;;28.50;99.90;;;;;;5091898;28;20396;-68
2023/05/28 07:53:17;;;;;;;9.82;4.07;;;29.20;99.90;;;;;;5091852;28;20016;-70
2023/05/28 07:55:43;;;;;;;11.65;4.28;;;28.80;99.90;;;;;;5074166;28;20024;-70
2023/05/28 07:58:11;;;;;;;9.55;4.47;;;28.80;99.90;;;;;;5091575;28;20064;-68
2023/05/28 08:00:38;;;;;;;14.15;4.32;;;28.40;99.90;;;;;;5091672;28;20031;-68
2023/05/28 08:03:04;;;;;;;10.10;4.25;;;28.40;99.90;;;;;;5091889;28;20482;-70
2023/05/28 08:05:30;;;;;;;;;;;28.90;99.90;;;;;;5092363;28;20094;-70
2023/05/28 08:07:56;;;;;;;12.40;5.07;;;29.30;99.90;;;;;;5091305;28;19904;-68
2023/05/28 08:10:22;;;;;;;10.52;3.88;;;29.60;99.90;;;;;;5091506;28;20084;-69
2023/05/28 08:12:48;;;;;;;13.23;4.35;;;29.70;99.90;;;;;;5091428;28;20052;-69
2023/05/28 08:15:15;;;;;;;8.95;4.60;;;28.80;99.90;;;;;;5091408;28;20036;-70
2023/05/28 08:17:40;;;;;;;;;;;28.40;99.90;;;;;;5092268;28;20449;-69
2023/05/28 08:20:08;;;;;;;;;;;27.70;99.90;;;;;;5092879;28;19911;-70
2023/05/28 08:22:34;;;;;;;8.73;3.83;;;27.80;99.90;;;;;;5092326;28;19911;-71
2023/05/28 08:25:00;;;;;;;12.65;4.10;;;28.60;99.90;;;;;;5092339;28;20024;-70
2023/05/28 08:27:26;;;;;;;;;;;28.80;99.90;;;;;;5092827;28;20111;-70
2023/05/28 08:29:52;;;;;;;12.23;4.45;;;28.80;99.90;;;;;;5092596;28;20085;-70
2023/05/28 08:32:18;;;;;;;11.70;4.32;;;29.20;99.90;;;;;;5092326;28;20024;-69
2023/05/28 08:34:44;;;;;;;8.57;4.18;;;28.50;99.90;;;;;;5092015;28;20031;-70
2023/05/28 08:37:11;;;;;;;8.40;3.72;;;28.90;99.90;;;;;;5108040;28;20043;-70
2023/05/28 08:39:37;;;;;;;11.40;4.03;;;29.10;99.90;;;;;;5092002;28;20484;-72
2023/05/28 08:42:03;;;;;;;9.70;3.85;;;29.00;99.90;;;;;;5092766;28;20028;-71
2023/05/28 08:44:30;;;;;;;7.13;3.80;;;29.10;99.90;;;;;;5073642;28;20325;-73
2023/05/28 08:46:56;;;;;;;6.95;4.15;;;29.20;99.90;;;;;;5092286;28;20020;-73
2023/05/28 08:49:32;;;;;;;12.30;3.85;;;29.00;99.90;;;;;;5092128;28;20031;-70
2023/05/28 08:52:04;;;;;;;10.13;4.47;;;28.70;99.90;;;;;;5090627;28;20054;-69
2023/05/28 08:54:30;;;;;;;12.05;3.78;;;28.50;99.90;;;;;;5091092;28;20024;-74
2023/05/28 08:56:56;;;;;;;9.63;3.83;;;28.90;99.90;;;;;;5090742;28;20035;-70
2023/05/28 08:59:24;;;;;;;9.15;3.65;;;29.30;99.90;;;;;;5090774;28;20107;-71
2023/05/28 09:01:52;;;;;;;6.38;3.75;;;28.80;99.90;;;;;;5090678;28;20085;-69
2023/05/28 09:04:18;;;;;;;7.97;3.90;;;28.80;99.90;;;;;;5090986;28;20028;-68
2023/05/28 09:06:44;;;;;;;8.80;3.85;;;28.30;99.90;;;;;;5090979;28;20185;-70
2023/05/28 09:09:11;;;;;;;6.38;3.50;;;28.20;99.90;;;;;;5090393;28;20445;-70
2023/05/28 09:11:37;;;;;;;8.93;3.47;;;28.50;99.90;;;;;;5090477;28;20146;-70
2023/05/28 09:14:12;;;;;;;4.43;2.97;;;28.80;99.90;;;;;;5090149;28;20024;-70
2023/05/28 09:16:42;;;;;;;7.53;3.20;;;28.20;99.90;;;;;;5089988;28;20028;-70
2023/05/28 09:19:09;;;;;;;8.30;3.30;;;28.20;99.90;;;;;;5090167;28;20308;-69
2023/05/28 09:21:38;;;;;;;9.32;3.67;;;28.20;99.90;;;;;;5090370;28;20075;-68
2023/05/28 09:24:05;;;;;;;7.93;3.90;;;28.30;99.90;;;;;;5105794;28;20133;-69
2023/05/28 09:26:31;;;;;;;6.63;3.28;;;28.50;99.90;;;;;;5090280;28;20020;-68
2023/05/28 09:28:58;;;;;;;7.90;3.00;;;28.70;99.90;;;;;;5090147;28;20052;-70
2023/05/28 09:31:32;;;;;;;12.60;4.35;;;28.50;99.90;;;;;;5090159;28;20119;-69
2023/05/28 09:34:03;;;;;;;12.35;3.78;;;28.50;99.90;;;;;;5090414;28;20047;-69
2023/05/28 09:36:32;;;;;;;10.52;4.30;;;28.50;99.90;;;;;;5090335;28;20134;-69
2023/05/28 09:38:58;;;;;;;9.35;4.13;;;28.40;99.90;;;;;;5090479;28;20031;-69
2023/05/28 09:41:33;;;;;;;10.60;4.30;;;28.30;99.90;;;;;;5090145;28;20173;-69
2023/05/28 09:44:01;;;;;;;13.00;4.67;;;28.10;99.90;;;;;;5090021;28;20030;-70
2023/05/28 09:46:31;;;;;;;10.73;4.03;;;28.00;99.90;;;;;;5090546;28;20047;-69
2023/05/28 09:48:59;;;;;;;9.45;4.20;;;27.80;99.90;;;;;;5090639;28;20024;-70
2023/05/28 09:51:30;;;;;;;10.50;4.30;;;28.00;99.90;;;;;;5090105;28;20097;-70
2023/05/28 09:54:08;;;;;;;12.80;5.10;;;28.00;99.90;;;;;;5071531;28;20456;-70
2023/05/28 09:56:37;;;;;;;16.30;4.55;;;27.90;99.90;;;;;;5090292;28;20528;-70
2023/05/28 09:59:07;;;;;;;9.30;4.18;;;27.70;99.90;;;;;;5090152;28;20016;-70
2023/05/28 10:01:47;;;;;;;8.27;4.30;;;27.50;99.90;;;;;;5090496;28;20106;-70
2023/05/28 10:04:17;;;;;;;10.30;4.63;;;27.50;99.90;;;;;;5090475;28;20120;-69
2023/05/28 10:06:44;;;;;;;11.45;4.40;;;27.50;99.90;;;;;;5090475;28;20161;-71
2023/05/28 10:09:15;;;;;;;12.43;4.72;;;27.10;99.90;;;;;;5089648;28;20118;-70
2023/05/28 10:12:12;;;;;;;8.98;4.57;;;27.10;99.90;;;;;;5090034;28;20063;-70
2023/05/28 10:14:39;;;;;;;8.75;4.03;;;27.40;99.90;;;;;;5090006;28;20096;-72
2023/05/28 10:17:08;;;;;;;11.88;4.50;;;27.10;99.90;;;;;;5089803;28;20149;-70
2023/05/28 10:19:36;;;;;;;10.40;4.25;;;27.20;99.90;;;;;;5089864;28;20177;-70
2023/05/28 10:22:02;;;;;;;10.20;4.22;;;27.20;99.90;;;;;;5089786;28;20016;-70
2023/05/28 10:24:28;;;;;;;;;;;27.10;99.90;;;;;;5090239;28;20468;-71
2023/05/28 10:26:55;;;;;;;6.90;3.92;;;27.10;99.90;;;;;;5089593;28;19903;-70
2023/05/28 10:29:21;;;;;;;8.30;3.90;;;27.40;99.90;;;;;;5072441;28;20027;-70
2023/05/28 10:32:17;;;;;;;9.38;4.20;;;27.30;99.90;;;;;;5093237;28;20506;-72
2023/05/28 10:34:43;;;;;;;9.45;4.22;;;27.10;99.90;;;;;;5073858;28;20131;-71
2023/05/28 10:37:10;;;;;;;9.27;3.88;;;27.20;99.90;;;;;;5093594;28;20085;-71
2023/05/28 10:39:40;;;;;;;11.57;4.05;;;27.10;99.90;;;;;;5075266;28;20468;-74
2023/05/28 10:42:10;;;;;;;10.45;4.35;;;27.20;99.90;;;;;;5074892;28;20046;-72
2023/05/28 10:45:07;;;;;;;12.85;4.57;;;27.30;99.90;;;;;;5074884;28;20431;-73
2023/05/28 10:47:37;;;;;;;11.82;3.95;;;27.40;99.90;;;;;;5093314;28;20035;-73
2023/05/28 10:50:17;;;;;;;8.25;3.88;;;27.20;99.90;;;;;;5074924;28;20082;-71
2023/05/28 10:52:43;;;;;;;11.38;3.80;;;27.40;99.90;;;;;;5093541;28;20563;-73
2023/05/28 10:55:10;;;;;;;;;;;27.20;99.90;;;;;;5075101;28;20395;-72
2023/05/28 10:57:48;;;;;;;8.70;3.80;;;27.20;99.90;;;;;;5093050;28;20248;-72
2023/05/28 11:00:24;;;;;;;10.57;4.90;;;26.90;99.90;;;;;;5093245;28;20024;-74
2023/05/28 11:02:54;;;;;;;;;;;26.90;99.90;;;;;;5093375;28;20104;-77
2023/05/28 11:05:25;;;;;;;12.40;4.40;;;26.90;99.90;;;;;;5093139;28;19910;-75
2023/05/28 11:07:52;;;;;;;12.32;4.35;;;27.10;99.90;;;;;;5092737;28;20486;-76
2023/05/28 11:10:19;;;;;;;9.18;4.10;;;27.10;99.90;;;;;;5092576;28;20177;-75
2023/05/28 11:12:45;;;;;;;7.88;4.00;;;26.90;99.90;;;;;;5092768;28;20023;-75
2023/05/28 11:15:13;;;;;;;12.95;4.72;;;26.90;99.90;;;;;;5092941;28;20024;-77
2023/05/28 11:17:41;;;;;;;8.68;4.32;;;26.90;99.90;;;;;;5092642;28;20077;-76
2023/05/28 11:20:21;;;;;;;11.60;4.80;;;27.00;99.90;;;;;;5092705;28;20107;-76
2023/05/28 11:22:48;;;;;;;10.65;5.40;;;27.20;99.90;;;;;;5092773;28;20093;-76
2023/05/28 11:25:14;;;;;;;9.63;4.90;;;27.00;99.90;;;;;;5092781;28;20046;-75
2023/05/28 11:27:41;;;;;;;;;;;26.90;99.90;;;;;;5092904;28;20479;-76
2023/05/28 11:30:12;;;;;;;10.18;4.55;;;26.70;99.90;;;;;;5092429;28;20375;-76
2023/05/28 11:32:38;;;;;;;12.43;4.60;;;26.70;99.90;;;;;;5092423;28;20024;-76
2023/05/28 11:35:05;;;;;;;7.30;3.72;;;26.80;99.90;;;;;;5092498;28;20073;-74
2023/05/28 11:37:33;;;;;;;8.32;4.30;;;26.90;99.90;;;;;;5091977;28;20024;-73
2023/05/28 11:40:00;;;;;;;9.57;4.40;;;27.20;99.90;;;;;;5091861;28;20105;-73
2023/05/28 11:42:29;;;;;;;8.25;4.15;;;27.30;99.90;;;;;;5091930;28;20325;-72
2023/05/28 11:44:56;;;;;;;8.63;4.28;;;27.20;99.90;;;;;;5091971;28;20035;-73
2023/05/28 11:47:23;;;;;;;;;;;27.20;99.90;;;;;;5092391;28;20426;-73
2023/05/28 11:49:50;;;;;;;7.82;3.83;;;26.90;99.90;;;;;;5091944;28;19912;-72
2023/05/28 11:52:21;;;;;;;7.68;4.03;;;26.80;99.90;;;;;;5091781;28;20028;-73
2023/05/28 11:54:52;;;;;;;7.95;4.10;;;26.70;99.90;;;;;;5073514;28;20028;-72
2023/05/28 11:57:27;;;;;;;10.43;4.00;;;27.00;99.90;;;;;;5091959;28;20099;-72
2023/05/28 12:00:10;;;;;;;8.77;4.07;;;27.00;99.90;;;;;;5091958;28;20456;-70
2023/05/28 12:02:43;;;;;;;11.13;4.65;;;26.90;99.90;;;;;;5091662;28;20020;-72
2023/05/28 12:05:09;;;;;;;10.90;4.55;;;26.90;99.90;;;;;;5091590;28;20028;-72
2023/05/28 12:07:36;;;;;;;8.05;3.70;;;27.00;99.90;;;;;;5091693;28;20422;-72
2023/05/28 12:10:10;;;;;;;6.55;3.95;;;27.20;99.90;;;;;;5072946;28;20066;-74
2023/05/28 12:12:45;;;;;;;11.68;4.05;;;27.50;99.90;;;;;;5091365;28;20077;-74
2023/05/28 12:15:12;;;;;;;7.45;4.07;;;27.30;99.90;;;;;;5091047;28;20050;-72
2023/05/28 12:17:40;;;;;;;10.40;4.20;;;27.00;99.90;;;;;;5106894;28;20070;-73
2023/05/28 12:20:29;;;;;;;8.30;3.55;;;27.10;99.90;;;;;;5091460;28;20028;-73
2023/05/28 12:23:12;;;;;;;6.65;3.83;;;27.10;99.90;;;;;;5082185;28;20034;-72
2023/05/28 12:25:48;;;;;;;7.10;3.95;;;27.20;99.90;;;;;;5091443;28;20027;-73
2023/05/28 12:28:17;;;;;;;9.40;3.85;;;26.70;99.90;;;;;;5091055;28;20103;-72
2023/05/28 12:30:44;;;;;;;10.07;3.80;;;26.80;99.90;;;;;;5091101;28;20060;-71
2023/05/28 12:33:11;;;;;;;8.93;3.95;;;26.90;99.90;;;;;;5072659;28;20496;-72
2023/05/28 12:35:39;;;;;;;8.15;3.78;;;27.30;99.90;;;;;;5090901;28;20055;-73
2023/05/28 12:38:05;;;;;;;8.93;3.90;;;27.10;99.90;;;;;;5091124;28;20031;-71
2023/05/28 12:40:31;;;;;;;9.60;3.67;;;27.40;99.90;;;;;;5091070;28;20134;-68
2023/05/28 12:42:57;;;;;;;8.68;3.80;;;27.30;99.90;;;;;;5090804;28;20396;-70
2023/05/28 12:45:23;;;;;;;6.30;3.80;;;26.90;99.90;;;;;;5091013;28;20032;-71
2023/05/28 12:47:49;;;;;;;7.38;3.50;;;26.60;99.90;;;;;;5090844;28;20382;-69
2023/05/28 12:50:15;;;;;;;8.90;3.83;;;26.90;99.90;;;;;;5090708;28;20452;-71